sensor_id;sensor_type;location;lat;lon;timestamp;pressure;altitude;pressure_sealevel;temperature;humidity
5679;BME280;2862;52.560;13.566;2023-02-11T00:00:24;102016.41;;;2.97;85.56
5679;BME280;2862;52.560;13.566;2023-02-11T00:10:29;102005.94;;;2.94;85.93
5679;BME280;2862;52.560;13.566;2023-02-11T00:20:32;102052.00;;;3.13;85.22
5679;BME280;2862;52.560;13.566;2023-02-11T00:30:37;102020.09;;;3.19;84.98
5679;BME280;2862;52.560;13.566;2023-02-11T00:40:41;102008.59;;;3.22;84.94
5679;BME280;2862;52.560;13.566;2023-02-11T00:50:46;101997.69;;;3.33;84.69
5679;BME280;2862;52.560;13.566;2023-02-11T01:00:50;101996.63;;;3.38;85.06
5679;BME280;2862;52.560;13.566;2023-02-11T01:11:01;101936.50;;;3.43;85.43
5679;BME280;2862;52.560;13.566;2023-02-11T01:21:05;101933.38;;;3.57;85.49
5679;BME280;2862;52.560;13.566;2023-02-11T01:31:10;101919.16;;;3.61;86.42
5679;BME280;2862;52.560;13.566;2023-02-11T01:41:13;101925.88;;;3.70;88.87
5679;BME280;2862;52.560;13.566;2023-02-11T01:51:23;101913.91;;;3.85;88.10
5679;BME280;2862;52.560;13.566;2023-02-11T02:01:28;101926.28;;;3.84;87.25
5679;BME280;2862;52.560;13.566;2023-02-11T02:11:37;101923.34;;;3.92;86.67
5679;BME280;2862;52.560;13.566;2023-02-11T02:21:57;101915.03;;;4.01;87.39
5679;BME280;2862;52.560;13.566;2023-02-11T02:32:25;101894.41;;;4.11;87.14
5679;BME280;2862;52.560;13.566;2023-02-11T02:42:33;101882.56;;;4.21;87.08
5679;BME280;2862;52.560;13.566;2023-02-11T02:52:43;101871.72;;;4.27;87.22
5679;BME280;2862;52.560;13.566;2023-02-11T03:02:57;101860.34;;;4.25;88.08
5679;BME280;2862;52.560;13.566;2023-02-11T03:13:09;101854.69;;;4.34;88.06
5679;BME280;2862;52.560;13.566;2023-02-11T03:23:15;101828.28;;;4.33;88.90
5679;BME280;2862;52.560;13.566;2023-02-11T03:33:27;101839.63;;;4.36;89.41
5679;BME280;2862;52.560;13.566;2023-02-11T03:43:35;101847.56;;;4.36;89.96
5679;BME280;2862;52.560;13.566;2023-02-11T03:53:42;101844.59;;;4.44;90.26
5679;BME280;2862;52.560;13.566;2023-02-11T04:03:46;101831.22;;;4.47;90.76
5679;BME280;2862;52.560;13.566;2023-02-11T04:13:51;101851.44;;;4.49;91.47
5679;BME280;2862;52.560;13.566;2023-02-11T04:23:54;101836.28;;;4.53;92.37
5679;BME280;2862;52.560;13.566;2023-02-11T04:33:59;101818.28;;;4.61;93.34
5679;BME280;2862;52.560;13.566;2023-02-11T04:44:02;101808.66;;;4.59;94.60
5679;BME280;2862;52.560;13.566;2023-02-11T04:54:07;101798.97;;;4.59;95.82
5679;BME280;2862;52.560;13.566;2023-02-11T05:04:10;101791.81;;;4.61;96.86
5679;BME280;2862;52.560;13.566;2023-02-11T05:14:14;101752.06;;;4.61;97.81
5679;BME280;2862;52.560;13.566;2023-02-11T05:24:19;101743.34;;;4.59;99.19
5679;BME280;2862;52.560;13.566;2023-02-11T05:34:24;101737.41;;;4.52;100.00
5679;BME280;2862;52.560;13.566;2023-02-11T05:44:27;101732.75;;;4.59;100.00
5679;BME280;2862;52.560;13.566;2023-02-11T05:54:31;101736.69;;;4.69;100.00
5679;BME280;2862;52.560;13.566;2023-02-11T06:04:36;101733.16;;;4.70;100.00
5679;BME280;2862;52.560;13.566;2023-02-11T06:14:41;101739.31;;;4.71;100.00
5679;BME280;2862;52.560;13.566;2023-02-11T06:24:44;101727.63;;;4.75;100.00
5679;BME280;2862;52.560;13.566;2023-02-11T06:35:03;101720.25;;;4.83;100.00
5679;BME280;2862;52.560;13.566;2023-02-11T06:45:07;101712.09;;;4.88;100.00
5679;BME280;2862;52.560;13.566;2023-02-11T06:55:12;101718.03;;;4.93;100.00
5679;BME280;2862;52.560;13.566;2023-02-11T07:05:16;101714.88;;;5.05;100.00
5679;BME280;2862;52.560;13.566;2023-02-11T07:15:21;101703.31;;;5.06;100.00
5679;BME280;2862;52.560;13.566;2023-02-11T07:25:24;101698.44;;;5.16;100.00
5679;BME280;2862;52.560;13.566;2023-02-11T07:35:29;101690.00;;;5.26;100.00
5679;BME280;2862;52.560;13.566;2023-02-11T07:45:32;101683.28;;;5.38;100.00
5679;BME280;2862;52.560;13.566;2023-02-11T07:55:37;101679.44;;;5.45;100.00
5679;BME280;2862;52.560;13.566;2023-02-11T08:05:40;101703.84;;;5.91;100.00
5679;BME280;2862;52.560;13.566;2023-02-11T08:15:46;101724.16;;;6.46;100.00
5679;BME280;2862;52.560;13.566;2023-02-11T08:25:49;101725.25;;;5.86;100.00
5679;BME280;2862;52.560;13.566;2023-02-11T08:35:54;101743.94;;;5.83;100.00
5679;BME280;2862;52.560;13.566;2023-02-11T08:45:56;101750.50;;;5.76;100.00
5679;BME280;2862;52.560;13.566;2023-02-11T08:56:04;101716.41;;;5.67;100.00
5679;BME280;2862;52.560;13.566;2023-02-11T09:06:08;101713.13;;;5.81;100.00
5679;BME280;2862;52.560;13.566;2023-02-11T09:16:18;101710.78;;;5.94;100.00
5679;BME280;2862;52.560;13.566;2023-02-11T09:26:22;101730.47;;;5.88;100.00
5679;BME280;2862;52.560;13.566;2023-02-11T09:36:29;101741.59;;;5.96;100.00
5679;BME280;2862;52.560;13.566;2023-02-11T09:46:35;101758.03;;;6.04;100.00
5679;BME280;2862;52.560;13.566;2023-02-11T09:56:42;101770.81;;;6.15;100.00
5679;BME280;2862;52.560;13.566;2023-02-11T10:06:48;101763.78;;;6.14;100.00
5679;BME280;2862;52.560;13.566;2023-02-11T10:17:00;101781.28;;;6.18;100.00
5679;BME280;2862;52.560;13.566;2023-02-11T10:27:14;101804.56;;;6.30;100.00
5679;BME280;2862;52.560;13.566;2023-02-11T10:37:19;101785.00;;;6.33;100.00
5679;BME280;2862;52.560;13.566;2023-02-11T10:47:25;101746.44;;;6.24;100.00
5679;BME280;2862;52.560;13.566;2023-02-11T10:57:33;101754.94;;;6.13;100.00
5679;BME280;2862;52.560;13.566;2023-02-11T11:07:36;101735.19;;;6.19;100.00
5679;BME280;2862;52.560;13.566;2023-02-11T11:17:41;101734.53;;;6.33;100.00
5679;BME280;2862;52.560;13.566;2023-02-11T11:27:47;101724.00;;;6.31;100.00
5679;BME280;2862;52.560;13.566;2023-02-11T11:37:54;101748.44;;;6.38;100.00
5679;BME280;2862;52.560;13.566;2023-02-11T11:48:08;101737.44;;;6.46;100.00
5679;BME280;2862;52.560;13.566;2023-02-11T11:58:17;101730.09;;;6.51;100.00
5679;BME280;2862;52.560;13.566;2023-02-11T12:08:28;101748.16;;;6.61;100.00
5679;BME280;2862;52.560;13.566;2023-02-11T12:29:12;101752.63;;;6.78;100.00
5679;BME280;2862;52.560;13.566;2023-02-11T12:39:25;101745.09;;;6.86;100.00
5679;BME280;2862;52.560;13.566;2023-02-11T12:49:44;101744.56;;;6.97;100.00
5679;BME280;2862;52.560;13.566;2023-02-11T12:59:59;101761.53;;;6.95;100.00
5679;BME280;2862;52.560;13.566;2023-02-11T13:10:25;101780.91;;;6.97;100.00
5679;BME280;2862;52.560;13.566;2023-02-11T13:20:38;101785.50;;;7.10;100.00
5679;BME280;2862;52.560;13.566;2023-02-11T13:30:46;101784.88;;;7.05;100.00
5679;BME280;2862;52.560;13.566;2023-02-11T13:41:03;101794.53;;;7.08;100.00
5679;BME280;2862;52.560;13.566;2023-02-11T14:14:14;101805.00;;;7.11;100.00
5679;BME280;2862;52.560;13.566;2023-02-11T14:24:39;101794.34;;;7.11;100.00
5679;BME280;2862;52.560;13.566;2023-02-11T14:34:54;101804.75;;;7.15;100.00
5679;BME280;2862;52.560;13.566;2023-02-11T14:45:04;101811.34;;;7.08;100.00
5679;BME280;2862;52.560;13.566;2023-02-11T14:55:17;101803.03;;;7.14;100.00
5679;BME280;2862;52.560;13.566;2023-02-11T15:05:27;101846.44;;;7.15;100.00
5679;BME280;2862;52.560;13.566;2023-02-11T15:15:32;101845.50;;;7.16;100.00
5679;BME280;2862;52.560;13.566;2023-02-11T15:25:42;101867.72;;;7.15;100.00
5679;BME280;2862;52.560;13.566;2023-02-11T15:35:47;101877.38;;;7.17;100.00
5679;BME280;2862;52.560;13.566;2023-02-11T15:45:57;101877.91;;;7.24;100.00
5679;BME280;2862;52.560;13.566;2023-02-11T15:56:09;101878.69;;;7.26;100.00
5679;BME280;2862;52.560;13.566;2023-02-11T16:06:15;101897.31;;;7.26;100.00
5679;BME280;2862;52.560;13.566;2023-02-11T16:16:21;101906.63;;;7.35;100.00
5679;BME280;2862;52.560;13.566;2023-02-11T16:26:29;101902.88;;;7.39;100.00
5679;BME280;2862;52.560;13.566;2023-02-11T16:36:37;101915.16;;;7.41;100.00
5679;BME280;2862;52.560;13.566;2023-02-11T16:46:40;101926.81;;;7.39;100.00
5679;BME280;2862;52.560;13.566;2023-02-11T16:56:44;101938.03;;;7.45;100.00
5679;BME280;2862;52.560;13.566;2023-02-11T17:06:47;101961.09;;;7.62;100.00
5679;BME280;2862;52.560;13.566;2023-02-11T17:16:51;101967.13;;;7.66;100.00
5679;BME280;2862;52.560;13.566;2023-02-11T17:26:54;101980.91;;;7.57;100.00
5679;BME280;2862;52.560;13.566;2023-02-11T17:36:58;101994.19;;;7.57;100.00
5679;BME280;2862;52.560;13.566;2023-02-11T17:47:03;102001.91;;;7.45;100.00
5679;BME280;2862;52.560;13.566;2023-02-11T17:57:08;102009.56;;;7.52;100.00
5679;BME280;2862;52.560;13.566;2023-02-11T18:07:11;102023.13;;;7.64;100.00
5679;BME280;2862;52.560;13.566;2023-02-11T18:17:16;102053.97;;;7.68;100.00
5679;BME280;2862;52.560;13.566;2023-02-11T18:27:22;102069.06;;;7.68;100.00
5679;BME280;2862;52.560;13.566;2023-02-11T18:37:27;102081.22;;;7.73;100.00
5679;BME280;2862;52.560;13.566;2023-02-11T18:47:30;102087.88;;;7.65;100.00
5679;BME280;2862;52.560;13.566;2023-02-11T18:57:34;102100.22;;;7.66;100.00
5679;BME280;2862;52.560;13.566;2023-02-11T19:07:37;102120.19;;;7.57;100.00
5679;BME280;2862;52.560;13.566;2023-02-11T19:17:41;102118.94;;;7.64;100.00
5679;BME280;2862;52.560;13.566;2023-02-11T19:27:45;102149.72;;;7.51;100.00
5679;BME280;2862;52.560;13.566;2023-02-11T19:37:50;102137.38;;;7.50;100.00
5679;BME280;2862;52.560;13.566;2023-02-11T19:47:56;102144.94;;;7.59;100.00
5679;BME280;2862;52.560;13.566;2023-02-11T19:58:01;102143.25;;;7.57;100.00
5679;BME280;2862;52.560;13.566;2023-02-11T20:08:04;102170.91;;;7.54;100.00
5679;BME280;2862;52.560;13.566;2023-02-11T20:18:08;102172.09;;;7.66;100.00
5679;BME280;2862;52.560;13.566;2023-02-11T20:28:11;102190.09;;;7.61;100.00
5679;BME280;2862;52.560;13.566;2023-02-11T20:38:14;102202.41;;;7.63;100.00
5679;BME280;2862;52.560;13.566;2023-02-11T20:48:17;102216.72;;;7.61;100.00
5679;BME280;2862;52.560;13.566;2023-02-11T20:58:22;102227.44;;;7.59;100.00
5679;BME280;2862;52.560;13.566;2023-02-11T21:08:25;102239.16;;;7.55;100.00
5679;BME280;2862;52.560;13.566;2023-02-11T21:18:29;102259.00;;;7.67;100.00
5679;BME280;2862;52.560;13.566;2023-02-11T21:28:33;102269.66;;;7.67;100.00
5679;BME280;2862;52.560;13.566;2023-02-11T21:38:40;102280.09;;;7.71;100.00
5679;BME280;2862;52.560;13.566;2023-02-11T21:48:43;102294.47;;;7.67;100.00
5679;BME280;2862;52.560;13.566;2023-02-11T21:58:51;102305.56;;;7.58;100.00
5679;BME280;2862;52.560;13.566;2023-02-11T22:08:55;102307.78;;;7.49;100.00
5679;BME280;2862;52.560;13.566;2023-02-11T22:18:59;102340.38;;;7.54;100.00
5679;BME280;2862;52.560;13.566;2023-02-11T22:29:03;102350.50;;;7.45;100.00
5679;BME280;2862;52.560;13.566;2023-02-11T22:39:21;102361.16;;;7.45;100.00
5679;BME280;2862;52.560;13.566;2023-02-11T22:49:24;102370.88;;;7.47;100.00
5679;BME280;2862;52.560;13.566;2023-02-11T22:59:29;102391.06;;;7.51;100.00
5679;BME280;2862;52.560;13.566;2023-02-11T23:14:51;102408.03;;;7.48;100.00
5679;BME280;2862;52.560;13.566;2023-02-11T23:24:53;102409.09;;;7.44;100.00
5679;BME280;2862;52.560;13.566;2023-02-11T23:34:57;102415.09;;;7.49;100.00
5679;BME280;2862;52.560;13.566;2023-02-11T23:45:01;102417.91;;;7.46;100.00
5679;BME280;2862;52.560;13.566;2023-02-11T23:55:06;102416.56;;;7.36;100.00
